Terminal Aerodrome Forecast
Issued by NWS

Home | Current Version | Previous Version | Text Only | Print | Product List | Glossary On
Versions: 1 2 3 4 5 6 7 8 9 10 11 12 13 14 15 16 17 18 19 20 21 22 23 24 25
000
FTUS46 KLOX 141300 AAA
TAFSBP
TAF AMD
KSBP 141304Z 1413/1512 VRB03KT P6SM SCT007 BKN150
     FM141800 21006KT P6SM VCSH SCT100 BKN150
     FM142100 24009KT P6SM VCSH SCT100 BKN150
     FM150300 VRB05KT P6SM VCSH BKN150
     FM150700 VRB05KT P6SM BKN010 BKN120=

USA.gov is the U.S. government's official web portal to all federal, state and local government web resources and services.